sensor_id;sensor_type;location;lat;lon;timestamp;temperature;humidity
30206;DHT22;17010;51.306;3.150;2022-10-16T00:00:39;13.40;99.90
30206;DHT22;17010;51.306;3.150;2022-10-16T00:03:05;13.40;99.90
30206;DHT22;17010;51.306;3.150;2022-10-16T00:05:32;13.40;99.90
30206;DHT22;17010;51.306;3.150;2022-10-16T00:07:58;13.40;99.90
30206;DHT22;17010;51.306;3.150;2022-10-16T00:10:24;13.40;99.90
30206;DHT22;17010;51.306;3.150;2022-10-16T00:12:50;13.40;99.90
30206;DHT22;17010;51.306;3.150;2022-10-16T00:15:16;13.40;99.90
30206;DHT22;17010;51.306;3.150;2022-10-16T00:17:42;13.40;99.90
30206;DHT22;17010;51.306;3.150;2022-10-16T00:20:08;13.30;99.90
30206;DHT22;17010;51.306;3.150;2022-10-16T00:22:34;13.30;99.90
30206;DHT22;17010;51.306;3.150;2022-10-16T00:25:00;13.30;99.90
30206;DHT22;17010;51.306;3.150;2022-10-16T00:27:26;13.30;99.90
30206;DHT22;17010;51.306;3.150;2022-10-16T00:29:52;13.30;99.90
30206;DHT22;17010;51.306;3.150;2022-10-16T00:32:18;13.30;99.90
30206;DHT22;17010;51.306;3.150;2022-10-16T00:34:45;13.30;99.90
30206;DHT22;17010;51.306;3.150;2022-10-16T00:37:11;13.30;99.90
30206;DHT22;17010;51.306;3.150;2022-10-16T00:39:37;13.30;99.90
30206;DHT22;17010;51.306;3.150;2022-10-16T00:42:03;13.40;99.90
30206;DHT22;17010;51.306;3.150;2022-10-16T00:47:12;13.40;99.90
30206;DHT22;17010;51.306;3.150;2022-10-16T00:49:38;13.40;99.90
30206;DHT22;17010;51.306;3.150;2022-10-16T00:52:04;13.40;99.90
30206;DHT22;17010;51.306;3.150;2022-10-16T00:54:31;13.40;99.90
30206;DHT22;17010;51.306;3.150;2022-10-16T00:57:01;13.50;99.90
30206;DHT22;17010;51.306;3.150;2022-10-16T00:59:38;13.50;99.90
30206;DHT22;17010;51.306;3.150;2022-10-16T01:02:06;13.50;99.90
30206;DHT22;17010;51.306;3.150;2022-10-16T01:04:39;13.50;99.90
30206;DHT22;17010;51.306;3.150;2022-10-16T01:07:09;13.50;99.90
30206;DHT22;17010;51.306;3.150;2022-10-16T01:12:11;13.60;99.90
30206;DHT22;17010;51.306;3.150;2022-10-16T01:17:16;13.60;99.90
30206;DHT22;17010;51.306;3.150;2022-10-16T01:19:50;13.60;99.90
30206;DHT22;17010;51.306;3.150;2022-10-16T01:22:22;13.60;99.90
30206;DHT22;17010;51.306;3.150;2022-10-16T01:24:51;13.60;99.90
30206;DHT22;17010;51.306;3.150;2022-10-16T01:29:56;13.60;99.90
30206;DHT22;17010;51.306;3.150;2022-10-16T01:32:28;13.60;99.90
30206;DHT22;17010;51.306;3.150;2022-10-16T01:34:58;13.60;99.90
30206;DHT22;17010;51.306;3.150;2022-10-16T01:37:32;13.60;99.90
30206;DHT22;17010;51.306;3.150;2022-10-16T01:39:59;13.70;99.90
30206;DHT22;17010;51.306;3.150;2022-10-16T01:42:28;13.70;99.90
30206;DHT22;17010;51.306;3.150;2022-10-16T01:44:56;13.70;99.90
30206;DHT22;17010;51.306;3.150;2022-10-16T01:47:23;13.70;99.90
30206;DHT22;17010;51.306;3.150;2022-10-16T01:49:50;13.70;99.90
30206;DHT22;17010;51.306;3.150;2022-10-16T01:52:18;13.70;99.90
30206;DHT22;17010;51.306;3.150;2022-10-16T01:54:46;13.70;99.90
30206;DHT22;17010;51.306;3.150;2022-10-16T01:57:13;13.70;99.90
30206;DHT22;17010;51.306;3.150;2022-10-16T01:59:44;13.70;99.90
30206;DHT22;17010;51.306;3.150;2022-10-16T02:02:11;13.70;99.90
30206;DHT22;17010;51.306;3.150;2022-10-16T02:04:48;13.70;99.90
30206;DHT22;17010;51.306;3.150;2022-10-16T02:07:15;13.70;99.90
30206;DHT22;17010;51.306;3.150;2022-10-16T02:09:41;13.70;99.90
30206;DHT22;17010;51.306;3.150;2022-10-16T02:12:15;13.70;99.90
30206;DHT22;17010;51.306;3.150;2022-10-16T02:14:42;13.70;99.90
30206;DHT22;17010;51.306;3.150;2022-10-16T02:17:13;13.60;99.90
30206;DHT22;17010;51.306;3.150;2022-10-16T02:19:39;13.60;99.90
30206;DHT22;17010;51.306;3.150;2022-10-16T02:22:05;13.60;99.90
30206;DHT22;17010;51.306;3.150;2022-10-16T02:24:38;13.60;99.90
30206;DHT22;17010;51.306;3.150;2022-10-16T02:27:18;13.50;99.90
30206;DHT22;17010;51.306;3.150;2022-10-16T02:29:46;13.50;99.90
30206;DHT22;17010;51.306;3.150;2022-10-16T02:32:17;13.50;99.90
30206;DHT22;17010;51.306;3.150;2022-10-16T02:34:45;13.40;99.90
30206;DHT22;17010;51.306;3.150;2022-10-16T02:37:12;13.40;99.90
30206;DHT22;17010;51.306;3.150;2022-10-16T02:39:38;13.40;99.90
30206;DHT22;17010;51.306;3.150;2022-10-16T02:42:09;13.40;99.90
30206;DHT22;17010;51.306;3.150;2022-10-16T02:44:35;13.40;99.90
30206;DHT22;17010;51.306;3.150;2022-10-16T02:47:01;13.30;99.90
30206;DHT22;17010;51.306;3.150;2022-10-16T02:49:27;13.30;99.90
30206;DHT22;17010;51.306;3.150;2022-10-16T02:51:53;13.30;99.90
30206;DHT22;17010;51.306;3.150;2022-10-16T02:54:18;13.30;99.90
30206;DHT22;17010;51.306;3.150;2022-10-16T02:56:44;13.30;99.90
30206;DHT22;17010;51.306;3.150;2022-10-16T02:59:10;13.30;99.90
30206;DHT22;17010;51.306;3.150;2022-10-16T03:01:36;13.20;99.90
30206;DHT22;17010;51.306;3.150;2022-10-16T03:04:02;13.20;99.90
30206;DHT22;17010;51.306;3.150;2022-10-16T03:06:28;13.20;99.90
30206;DHT22;17010;51.306;3.150;2022-10-16T03:08:54;13.20;99.90
30206;DHT22;17010;51.306;3.150;2022-10-16T03:11:20;13.20;99.90
30206;DHT22;17010;51.306;3.150;2022-10-16T03:13:46;13.20;99.90
30206;DHT22;17010;51.306;3.150;2022-10-16T03:16:12;13.20;99.90
30206;DHT22;17010;51.306;3.150;2022-10-16T03:18:39;13.20;99.90
30206;DHT22;17010;51.306;3.150;2022-10-16T03:21:04;13.20;99.90
30206;DHT22;17010;51.306;3.150;2022-10-16T03:23:30;13.10;99.90
30206;DHT22;17010;51.306;3.150;2022-10-16T03:25:56;13.10;99.90
30206;DHT22;17010;51.306;3.150;2022-10-16T03:28:22;13.10;99.90
30206;DHT22;17010;51.306;3.150;2022-10-16T03:30:48;13.10;99.90
30206;DHT22;17010;51.306;3.150;2022-10-16T03:33:14;13.10;99.90
30206;DHT22;17010;51.306;3.150;2022-10-16T03:35:40;13.10;99.90
30206;DHT22;17010;51.306;3.150;2022-10-16T03:38:06;13.10;99.90
30206;DHT22;17010;51.306;3.150;2022-10-16T03:40:32;13.10;99.90
30206;DHT22;17010;51.306;3.150;2022-10-16T03:42:58;13.10;99.90
30206;DHT22;17010;51.306;3.150;2022-10-16T03:45:24;13.00;99.90
30206;DHT22;17010;51.306;3.150;2022-10-16T03:47:50;13.00;99.90
30206;DHT22;17010;51.306;3.150;2022-10-16T03:50:16;13.00;99.90
30206;DHT22;17010;51.306;3.150;2022-10-16T03:52:42;13.00;99.90
30206;DHT22;17010;51.306;3.150;2022-10-16T03:55:08;13.00;99.90
30206;DHT22;17010;51.306;3.150;2022-10-16T03:57:34;12.90;99.90
30206;DHT22;17010;51.306;3.150;2022-10-16T04:00:00;12.90;99.90
30206;DHT22;17010;51.306;3.150;2022-10-16T04:02:26;12.90;99.90
30206;DHT22;17010;51.306;3.150;2022-10-16T04:04:52;12.90;99.90
30206;DHT22;17010;51.306;3.150;2022-10-16T04:07:18;12.90;99.90
30206;DHT22;17010;51.306;3.150;2022-10-16T04:09:44;12.90;99.90
30206;DHT22;17010;51.306;3.150;2022-10-16T04:12:10;13.00;99.90
30206;DHT22;17010;51.306;3.150;2022-10-16T04:14:36;12.90;99.90
30206;DHT22;17010;51.306;3.150;2022-10-16T04:17:02;12.90;99.90
30206;DHT22;17010;51.306;3.150;2022-10-16T04:19:28;12.90;99.90
30206;DHT22;17010;51.306;3.150;2022-10-16T04:21:53;12.90;99.90
30206;DHT22;17010;51.306;3.150;2022-10-16T04:24:19;13.00;99.90
30206;DHT22;17010;51.306;3.150;2022-10-16T04:26:45;13.00;99.90
30206;DHT22;17010;51.306;3.150;2022-10-16T04:29:11;13.10;99.90
30206;DHT22;17010;51.306;3.150;2022-10-16T04:31:37;13.10;99.90
30206;DHT22;17010;51.306;3.150;2022-10-16T04:34:03;13.10;99.90
30206;DHT22;17010;51.306;3.150;2022-10-16T04:36:29;13.10;99.90
30206;DHT22;17010;51.306;3.150;2022-10-16T04:38:55;13.20;99.90
30206;DHT22;17010;51.306;3.150;2022-10-16T04:41:21;13.20;99.90
30206;DHT22;17010;51.306;3.150;2022-10-16T04:43:47;13.20;99.90
30206;DHT22;17010;51.306;3.150;2022-10-16T04:46:13;13.30;99.90
30206;DHT22;17010;51.306;3.150;2022-10-16T04:48:39;13.30;99.90
30206;DHT22;17010;51.306;3.150;2022-10-16T04:51:05;13.30;99.90
30206;DHT22;17010;51.306;3.150;2022-10-16T04:53:31;13.40;99.90
30206;DHT22;17010;51.306;3.150;2022-10-16T04:55:57;13.40;99.90
30206;DHT22;17010;51.306;3.150;2022-10-16T04:58:23;13.40;99.90
30206;DHT22;17010;51.306;3.150;2022-10-16T05:00:49;13.50;99.90
30206;DHT22;17010;51.306;3.150;2022-10-16T05:03:15;13.50;99.90
30206;DHT22;17010;51.306;3.150;2022-10-16T05:05:44;13.60;99.90
30206;DHT22;17010;51.306;3.150;2022-10-16T05:08:14;13.60;99.90
30206;DHT22;17010;51.306;3.150;2022-10-16T05:10:41;13.60;99.90
30206;DHT22;17010;51.306;3.150;2022-10-16T05:13:07;13.60;99.90
30206;DHT22;17010;51.306;3.150;2022-10-16T05:15:34;13.60;99.90
30206;DHT22;17010;51.306;3.150;2022-10-16T05:18:00;13.60;99.90
30206;DHT22;17010;51.306;3.150;2022-10-16T05:20:26;13.60;99.90
30206;DHT22;17010;51.306;3.150;2022-10-16T05:22:52;13.60;99.90
30206;DHT22;17010;51.306;3.150;2022-10-16T05:25:18;13.50;99.90
30206;DHT22;17010;51.306;3.150;2022-10-16T05:27:47;13.60;99.90
30206;DHT22;17010;51.306;3.150;2022-10-16T05:30:13;13.60;99.90
30206;DHT22;17010;51.306;3.150;2022-10-16T05:32:38;13.50;99.90
30206;DHT22;17010;51.306;3.150;2022-10-16T05:35:04;13.60;99.90
30206;DHT22;17010;51.306;3.150;2022-10-16T05:37:30;13.50;99.90
30206;DHT22;17010;51.306;3.150;2022-10-16T05:39:56;13.40;99.90
30206;DHT22;17010;51.306;3.150;2022-10-16T05:42:22;13.40;99.90
30206;DHT22;17010;51.306;3.150;2022-10-16T05:44:48;13.40;99.90
30206;DHT22;17010;51.306;3.150;2022-10-16T05:47:14;13.30;99.90
30206;DHT22;17010;51.306;3.150;2022-10-16T05:49:40;13.30;99.90
30206;DHT22;17010;51.306;3.150;2022-10-16T05:52:06;13.20;99.90
30206;DHT22;17010;51.306;3.150;2022-10-16T05:54:32;13.20;99.90
30206;DHT22;17010;51.306;3.150;2022-10-16T05:56:58;13.20;99.90
30206;DHT22;17010;51.306;3.150;2022-10-16T05:59:24;13.20;99.90
30206;DHT22;17010;51.306;3.150;2022-10-16T06:01:50;13.10;99.90
30206;DHT22;17010;51.306;3.150;2022-10-16T06:04:16;13.10;99.90
30206;DHT22;17010;51.306;3.150;2022-10-16T06:06:42;13.10;99.90
30206;DHT22;17010;51.306;3.150;2022-10-16T06:09:08;13.10;99.90
30206;DHT22;17010;51.306;3.150;2022-10-16T06:11:34;13.00;99.90
30206;DHT22;17010;51.306;3.150;2022-10-16T06:14:01;13.00;99.90
30206;DHT22;17010;51.306;3.150;2022-10-16T06:16:33;12.90;99.90
30206;DHT22;17010;51.306;3.150;2022-10-16T06:18:59;12.90;99.90
30206;DHT22;17010;51.306;3.150;2022-10-16T06:21:26;12.90;99.90
30206;DHT22;17010;51.306;3.150;2022-10-16T06:23:52;13.00;99.90
30206;DHT22;17010;51.306;3.150;2022-10-16T06:26:20;13.00;99.90
30206;DHT22;17010;51.306;3.150;2022-10-16T06:28:46;12.90;99.90
30206;DHT22;17010;51.306;3.150;2022-10-16T06:31:13;12.90;99.90
30206;DHT22;17010;51.306;3.150;2022-10-16T06:33:39;12.90;99.90
30206;DHT22;17010;51.306;3.150;2022-10-16T06:38:31;12.90;99.90
30206;DHT22;17010;51.306;3.150;2022-10-16T06:40:57;13.00;99.90
30206;DHT22;17010;51.306;3.150;2022-10-16T06:43:24;13.00;99.90
30206;DHT22;17010;51.306;3.150;2022-10-16T06:45:51;13.00;99.90
30206;DHT22;17010;51.306;3.150;2022-10-16T06:48:17;13.10;99.90
30206;DHT22;17010;51.306;3.150;2022-10-16T06:50:43;13.20;99.90
30206;DHT22;17010;51.306;3.150;2022-10-16T06:53:09;13.20;99.90
30206;DHT22;17010;51.306;3.150;2022-10-16T06:55:34;13.30;99.90
30206;DHT22;17010;51.306;3.150;2022-10-16T06:58:00;13.40;99.90
30206;DHT22;17010;51.306;3.150;2022-10-16T07:00:26;13.50;99.90
30206;DHT22;17010;51.306;3.150;2022-10-16T07:02:52;13.50;99.90
30206;DHT22;17010;51.306;3.150;2022-10-16T07:05:18;13.50;99.90
30206;DHT22;17010;51.306;3.150;2022-10-16T07:07:44;13.50;99.90
30206;DHT22;17010;51.306;3.150;2022-10-16T07:10:10;13.50;99.90
30206;DHT22;17010;51.306;3.150;2022-10-16T07:12:36;13.60;99.90
30206;DHT22;17010;51.306;3.150;2022-10-16T07:15:02;13.60;99.90
30206;DHT22;17010;51.306;3.150;2022-10-16T07:17:28;13.60;99.90
30206;DHT22;17010;51.306;3.150;2022-10-16T07:19:54;13.60;99.90
30206;DHT22;17010;51.306;3.150;2022-10-16T07:22:21;13.60;99.90
30206;DHT22;17010;51.306;3.150;2022-10-16T07:24:47;13.60;99.90
30206;DHT22;17010;51.306;3.150;2022-10-16T07:27:13;13.70;99.90
30206;DHT22;17010;51.306;3.150;2022-10-16T07:29:39;13.70;99.90
30206;DHT22;17010;51.306;3.150;2022-10-16T07:32:05;13.80;99.90
30206;DHT22;17010;51.306;3.150;2022-10-16T07:34:31;13.80;99.90
30206;DHT22;17010;51.306;3.150;2022-10-16T07:36:57;13.90;99.90
30206;DHT22;17010;51.306;3.150;2022-10-16T07:39:22;14.00;99.90
30206;DHT22;17010;51.306;3.150;2022-10-16T07:41:48;14.20;99.90
30206;DHT22;17010;51.306;3.150;2022-10-16T07:44:15;14.40;99.90
30206;DHT22;17010;51.306;3.150;2022-10-16T07:46:41;14.60;99.90
30206;DHT22;17010;51.306;3.150;2022-10-16T07:49:08;14.80;99.90
30206;DHT22;17010;51.306;3.150;2022-10-16T07:51:34;15.00;99.90
30206;DHT22;17010;51.306;3.150;2022-10-16T07:54:00;15.20;99.90
30206;DHT22;17010;51.306;3.150;2022-10-16T07:56:26;15.40;99.90
30206;DHT22;17010;51.306;3.150;2022-10-16T07:58:52;15.60;99.90
30206;DHT22;17010;51.306;3.150;2022-10-16T08:01:18;15.80;99.90
30206;DHT22;17010;51.306;3.150;2022-10-16T08:03:45;16.00;99.90
30206;DHT22;17010;51.306;3.150;2022-10-16T08:06:11;16.20;99.90
30206;DHT22;17010;51.306;3.150;2022-10-16T08:08:37;16.40;99.90
30206;DHT22;17010;51.306;3.150;2022-10-16T08:11:03;16.60;99.90
30206;DHT22;17010;51.306;3.150;2022-10-16T08:13:30;16.70;99.90
30206;DHT22;17010;51.306;3.150;2022-10-16T08:15:56;16.80;99.90
30206;DHT22;17010;51.306;3.150;2022-10-16T08:18:22;16.80;99.90
30206;DHT22;17010;51.306;3.150;2022-10-16T08:20:48;17.00;99.90
30206;DHT22;17010;51.306;3.150;2022-10-16T08:23:20;17.20;99.90
30206;DHT22;17010;51.306;3.150;2022-10-16T08:25:46;17.40;99.90
30206;DHT22;17010;51.306;3.150;2022-10-16T08:28:11;17.60;99.90
30206;DHT22;17010;51.306;3.150;2022-10-16T08:30:37;17.90;99.90
30206;DHT22;17010;51.306;3.150;2022-10-16T08:33:04;18.10;99.90
30206;DHT22;17010;51.306;3.150;2022-10-16T08:35:30;18.10;99.90
30206;DHT22;17010;51.306;3.150;2022-10-16T08:37:56;18.10;99.90
30206;DHT22;17010;51.306;3.150;2022-10-16T08:40:23;18.20;99.90
30206;DHT22;17010;51.306;3.150;2022-10-16T08:45:34;18.50;99.90
30206;DHT22;17010;51.306;3.150;2022-10-16T08:50:31;18.80;99.90
30206;DHT22;17010;51.306;3.150;2022-10-16T08:52:57;19.00;99.90
30206;DHT22;17010;51.306;3.150;2022-10-16T08:55:43;19.10;99.90
30206;DHT22;17010;51.306;3.150;2022-10-16T08:58:16;19.20;99.90
30206;DHT22;17010;51.306;3.150;2022-10-16T09:00:43;19.30;99.90
30206;DHT22;17010;51.306;3.150;2022-10-16T09:11:21;19.90;99.90
30206;DHT22;17010;51.306;3.150;2022-10-16T09:16:34;20.50;99.90
30206;DHT22;17010;51.306;3.150;2022-10-16T09:19:09;20.70;99.90
30206;DHT22;17010;51.306;3.150;2022-10-16T09:21:40;20.80;99.90
30206;DHT22;17010;51.306;3.150;2022-10-16T09:24:09;20.60;99.90
30206;DHT22;17010;51.306;3.150;2022-10-16T09:26:37;20.30;99.90
30206;DHT22;17010;51.306;3.150;2022-10-16T09:29:03;20.00;99.90
30206;DHT22;17010;51.306;3.150;2022-10-16T09:31:29;19.90;99.90
30206;DHT22;17010;51.306;3.150;2022-10-16T09:33:57;19.90;99.90
30206;DHT22;17010;51.306;3.150;2022-10-16T09:36:30;20.10;99.90
30206;DHT22;17010;51.306;3.150;2022-10-16T09:39:07;20.50;99.90
30206;DHT22;17010;51.306;3.150;2022-10-16T09:41:37;20.70;99.90
30206;DHT22;17010;51.306;3.150;2022-10-16T09:44:06;20.80;99.90
30206;DHT22;17010;51.306;3.150;2022-10-16T09:46:41;20.70;99.90
30206;DHT22;17010;51.306;3.150;2022-10-16T09:49:24;20.70;99.90
30206;DHT22;17010;51.306;3.150;2022-10-16T09:51:50;20.80;99.90
30206;DHT22;17010;51.306;3.150;2022-10-16T09:54:18;20.90;99.90
30206;DHT22;17010;51.306;3.150;2022-10-16T09:56:44;21.10;99.90
30206;DHT22;17010;51.306;3.150;2022-10-16T09:59:22;21.30;99.90
30206;DHT22;17010;51.306;3.150;2022-10-16T10:01:56;21.40;99.90
30206;DHT22;17010;51.306;3.150;2022-10-16T10:04:37;21.60;99.90
30206;DHT22;17010;51.306;3.150;2022-10-16T10:07:04;21.80;99.90
30206;DHT22;17010;51.306;3.150;2022-10-16T10:09:31;22.10;99.90
30206;DHT22;17010;51.306;3.150;2022-10-16T10:12:03;22.50;99.90
30206;DHT22;17010;51.306;3.150;2022-10-16T10:19:42;23.00;99.90
30206;DHT22;17010;51.306;3.150;2022-10-16T10:24:41;22.90;99.90
30206;DHT22;17010;51.306;3.150;2022-10-16T10:27:16;22.70;99.90
30206;DHT22;17010;51.306;3.150;2022-10-16T10:30:01;22.60;99.90
30206;DHT22;17010;51.306;3.150;2022-10-16T10:32:41;22.40;99.90
30206;DHT22;17010;51.306;3.150;2022-10-16T10:37:43;22.10;99.90
30206;DHT22;17010;51.306;3.150;2022-10-16T10:40:15;22.00;99.90
30206;DHT22;17010;51.306;3.150;2022-10-16T10:42:57;22.00;99.90
30206;DHT22;17010;51.306;3.150;2022-10-16T10:45:27;22.00;99.90
30206;DHT22;17010;51.306;3.150;2022-10-16T10:47:56;22.10;99.90
30206;DHT22;17010;51.306;3.150;2022-10-16T10:50:26;22.20;99.90
30206;DHT22;17010;51.306;3.150;2022-10-16T10:52:59;22.20;99.90
30206;DHT22;17010;51.306;3.150;2022-10-16T11:00:52;22.10;99.90
30206;DHT22;17010;51.306;3.150;2022-10-16T11:06:05;22.50;99.90
30206;DHT22;17010;51.306;3.150;2022-10-16T11:08:36;22.70;99.90
30206;DHT22;17010;51.306;3.150;2022-10-16T11:11:22;22.50;99.90
30206;DHT22;17010;51.306;3.150;2022-10-16T11:16:21;21.90;99.90
30206;DHT22;17010;51.306;3.150;2022-10-16T11:18:53;21.60;99.90
30206;DHT22;17010;51.306;3.150;2022-10-16T11:21:21;21.30;99.90
30206;DHT22;17010;51.306;3.150;2022-10-16T11:26:21;20.80;99.90
30206;DHT22;17010;51.306;3.150;2022-10-16T11:28:50;20.70;99.90
30206;DHT22;17010;51.306;3.150;2022-10-16T11:31:19;20.60;99.90
30206;DHT22;17010;51.306;3.150;2022-10-16T11:36:36;20.50;99.90
30206;DHT22;17010;51.306;3.150;2022-10-16T11:41:34;20.70;99.90
30206;DHT22;17010;51.306;3.150;2022-10-16T11:46:48;20.90;99.90
30206;DHT22;17010;51.306;3.150;2022-10-16T11:49:18;21.00;99.90
30206;DHT22;17010;51.306;3.150;2022-10-16T11:54:28;21.10;99.90
30206;DHT22;17010;51.306;3.150;2022-10-16T11:56:57;21.20;99.90
30206;DHT22;17010;51.306;3.150;2022-10-16T11:59:27;21.30;99.90
30206;DHT22;17010;51.306;3.150;2022-10-16T12:04:33;21.30;99.90
30206;DHT22;17010;51.306;3.150;2022-10-16T12:07:06;21.30;99.90
30206;DHT22;17010;51.306;3.150;2022-10-16T12:09:37;21.40;99.90
30206;DHT22;17010;51.306;3.150;2022-10-16T12:12:04;21.30;99.90
30206;DHT22;17010;51.306;3.150;2022-10-16T12:14:35;21.20;99.90
30206;DHT22;17010;51.306;3.150;2022-10-16T12:19:28;20.90;99.90
30206;DHT22;17010;51.306;3.150;2022-10-16T12:21:55;20.70;99.90
30206;DHT22;17010;51.306;3.150;2022-10-16T12:26:57;20.60;99.90
30206;DHT22;17010;51.306;3.150;2022-10-16T12:29:28;20.60;99.90
30206;DHT22;17010;51.306;3.150;2022-10-16T12:31:55;20.60;99.90
30206;DHT22;17010;51.306;3.150;2022-10-16T12:34:29;20.60;99.90
30206;DHT22;17010;51.306;3.150;2022-10-16T12:37:07;20.60;99.90
30206;DHT22;17010;51.306;3.150;2022-10-16T12:39:34;20.70;99.90
30206;DHT22;17010;51.306;3.150;2022-10-16T12:42:03;20.80;99.90
30206;DHT22;17010;51.306;3.150;2022-10-16T12:44:36;20.90;99.90
30206;DHT22;17010;51.306;3.150;2022-10-16T12:47:02;21.10;99.90
30206;DHT22;17010;51.306;3.150;2022-10-16T12:51:55;21.40;99.90
30206;DHT22;17010;51.306;3.150;2022-10-16T12:59:35;21.40;99.90
30206;DHT22;17010;51.306;3.150;2022-10-16T13:02:20;21.40;99.90
30206;DHT22;17010;51.306;3.150;2022-10-16T13:15:23;21.70;99.90
30206;DHT22;17010;51.306;3.150;2022-10-16T13:18:02;21.80;99.90
30206;DHT22;17010;51.306;3.150;2022-10-16T13:28:27;21.80;99.90
30206;DHT22;17010;51.306;3.150;2022-10-16T13:30:55;21.70;99.90
30206;DHT22;17010;51.306;3.150;2022-10-16T13:33:41;21.50;99.90
30206;DHT22;17010;51.306;3.150;2022-10-16T13:36:18;21.50;99.90
30206;DHT22;17010;51.306;3.150;2022-10-16T13:38:45;21.60;99.90
30206;DHT22;17010;51.306;3.150;2022-10-16T13:41:17;21.50;99.90
30206;DHT22;17010;51.306;3.150;2022-10-16T13:43:47;21.50;99.90
30206;DHT22;17010;51.306;3.150;2022-10-16T13:46:16;21.50;99.90
30206;DHT22;17010;51.306;3.150;2022-10-16T13:48:42;21.50;99.90
30206;DHT22;17010;51.306;3.150;2022-10-16T13:51:15;21.40;99.90
30206;DHT22;17010;51.306;3.150;2022-10-16T13:53:42;21.30;99.90
30206;DHT22;17010;51.306;3.150;2022-10-16T13:56:12;21.20;99.90
30206;DHT22;17010;51.306;3.150;2022-10-16T13:58:39;21.10;99.90
30206;DHT22;17010;51.306;3.150;2022-10-16T14:01:23;21.00;99.90
30206;DHT22;17010;51.306;3.150;2022-10-16T14:03:50;20.90;99.90
30206;DHT22;17010;51.306;3.150;2022-10-16T14:06:20;20.70;99.90
30206;DHT22;17010;51.306;3.150;2022-10-16T14:08:50;20.70;99.90
30206;DHT22;17010;51.306;3.150;2022-10-16T14:11:21;20.40;99.90
30206;DHT22;17010;51.306;3.150;2022-10-16T14:13:49;20.30;99.90
30206;DHT22;17010;51.306;3.150;2022-10-16T14:16:19;20.30;99.90
30206;DHT22;17010;51.306;3.150;2022-10-16T14:18:46;20.10;99.90
30206;DHT22;17010;51.306;3.150;2022-10-16T14:21:17;20.00;99.90
30206;DHT22;17010;51.306;3.150;2022-10-16T14:23:43;20.00;99.90
30206;DHT22;17010;51.306;3.150;2022-10-16T14:28:36;19.80;99.90
30206;DHT22;17010;51.306;3.150;2022-10-16T14:31:03;19.80;99.90
30206;DHT22;17010;51.306;3.150;2022-10-16T14:33:45;19.80;99.90
30206;DHT22;17010;51.306;3.150;2022-10-16T14:36:14;19.80;99.90
30206;DHT22;17010;51.306;3.150;2022-10-16T14:38:43;19.80;99.90
30206;DHT22;17010;51.306;3.150;2022-10-16T14:41:13;19.80;99.90
30206;DHT22;17010;51.306;3.150;2022-10-16T14:43:41;19.80;99.90
30206;DHT22;17010;51.306;3.150;2022-10-16T14:46:14;19.80;99.90
30206;DHT22;17010;51.306;3.150;2022-10-16T14:48:41;19.80;99.90
30206;DHT22;17010;51.306;3.150;2022-10-16T14:51:17;19.60;99.90
30206;DHT22;17010;51.306;3.150;2022-10-16T14:53:43;19.50;99.90
30206;DHT22;17010;51.306;3.150;2022-10-16T14:56:19;19.30;99.90
30206;DHT22;17010;51.306;3.150;2022-10-16T14:58:46;19.20;99.90
30206;DHT22;17010;51.306;3.150;2022-10-16T15:01:12;19.10;99.90
30206;DHT22;17010;51.306;3.150;2022-10-16T15:03:38;19.00;99.90
30206;DHT22;17010;51.306;3.150;2022-10-16T15:06:07;18.90;99.90
30206;DHT22;17010;51.306;3.150;2022-10-16T15:08:35;18.80;99.90
30206;DHT22;17010;51.306;3.150;2022-10-16T15:11:01;18.80;99.90
30206;DHT22;17010;51.306;3.150;2022-10-16T15:13:26;18.70;99.90
30206;DHT22;17010;51.306;3.150;2022-10-16T15:15:53;18.60;99.90
30206;DHT22;17010;51.306;3.150;2022-10-16T15:18:19;18.60;99.90
30206;DHT22;17010;51.306;3.150;2022-10-16T15:20:48;18.50;99.90
30206;DHT22;17010;51.306;3.150;2022-10-16T15:23:16;18.40;99.90
30206;DHT22;17010;51.306;3.150;2022-10-16T15:25:47;18.30;99.90
30206;DHT22;17010;51.306;3.150;2022-10-16T15:28:13;18.40;99.90
30206;DHT22;17010;51.306;3.150;2022-10-16T15:30:40;18.30;99.90
30206;DHT22;17010;51.306;3.150;2022-10-16T15:33:10;18.30;99.90
30206;DHT22;17010;51.306;3.150;2022-10-16T15:35:36;18.30;99.90
30206;DHT22;17010;51.306;3.150;2022-10-16T15:38:02;18.20;99.90
30206;DHT22;17010;51.306;3.150;2022-10-16T15:40:28;18.20;99.90
30206;DHT22;17010;51.306;3.150;2022-10-16T15:42:54;18.20;99.90
30206;DHT22;17010;51.306;3.150;2022-10-16T15:45:20;18.20;99.90
30206;DHT22;17010;51.306;3.150;2022-10-16T15:47:46;18.10;99.90
30206;DHT22;17010;51.306;3.150;2022-10-16T15:50:13;18.10;99.90
30206;DHT22;17010;51.306;3.150;2022-10-16T15:52:39;18.00;99.90
30206;DHT22;17010;51.306;3.150;2022-10-16T15:55:09;18.00;99.90
30206;DHT22;17010;51.306;3.150;2022-10-16T15:57:36;18.00;99.90
30206;DHT22;17010;51.306;3.150;2022-10-16T16:00:07;18.00;99.90
30206;DHT22;17010;51.306;3.150;2022-10-16T16:02:33;17.90;99.90
30206;DHT22;17010;51.306;3.150;2022-10-16T16:04:59;17.80;99.90
30206;DHT22;17010;51.306;3.150;2022-10-16T16:07:25;17.80;99.90
30206;DHT22;17010;51.306;3.150;2022-10-16T16:09:53;17.80;99.90
30206;DHT22;17010;51.306;3.150;2022-10-16T16:12:19;17.80;99.90
30206;DHT22;17010;51.306;3.150;2022-10-16T16:14:45;17.70;99.90
30206;DHT22;17010;51.306;3.150;2022-10-16T16:17:14;17.70;99.90
30206;DHT22;17010;51.306;3.150;2022-10-16T16:19:40;17.70;99.90
30206;DHT22;17010;51.306;3.150;2022-10-16T16:22:06;17.60;99.90
30206;DHT22;17010;51.306;3.150;2022-10-16T16:24:32;17.60;99.90
30206;DHT22;17010;51.306;3.150;2022-10-16T16:26:57;17.50;99.90
30206;DHT22;17010;51.306;3.150;2022-10-16T16:29:23;17.50;99.90
30206;DHT22;17010;51.306;3.150;2022-10-16T16:31:49;17.50;99.90
30206;DHT22;17010;51.306;3.150;2022-10-16T16:34:15;17.50;99.90
30206;DHT22;17010;51.306;3.150;2022-10-16T16:36:41;17.50;99.90
30206;DHT22;17010;51.306;3.150;2022-10-16T16:39:07;17.40;99.90
30206;DHT22;17010;51.306;3.150;2022-10-16T16:41:33;17.40;99.90
30206;DHT22;17010;51.306;3.150;2022-10-16T16:44:06;17.30;99.90
30206;DHT22;17010;51.306;3.150;2022-10-16T16:46:33;17.30;99.90
30206;DHT22;17010;51.306;3.150;2022-10-16T16:48:59;17.20;99.90
30206;DHT22;17010;51.306;3.150;2022-10-16T16:51:26;17.20;99.90
30206;DHT22;17010;51.306;3.150;2022-10-16T16:53:52;17.20;99.90
30206;DHT22;17010;51.306;3.150;2022-10-16T16:56:19;17.10;99.90
30206;DHT22;17010;51.306;3.150;2022-10-16T16:58:45;17.10;99.90
30206;DHT22;17010;51.306;3.150;2022-10-16T17:01:11;17.00;99.90
30206;DHT22;17010;51.306;3.150;2022-10-16T17:03:37;17.00;99.90
30206;DHT22;17010;51.306;3.150;2022-10-16T17:06:05;16.90;99.90
30206;DHT22;17010;51.306;3.150;2022-10-16T17:08:31;16.90;99.90
30206;DHT22;17010;51.306;3.150;2022-10-16T17:10:57;16.90;99.90
30206;DHT22;17010;51.306;3.150;2022-10-16T17:13:24;16.80;99.90